sensor_id;sensor_type;location;lat;lon;timestamp;temperature;humidity
73438;DHT22;62744;56.802;23.964;2022-12-07T00:01:42;-1.60;95.70
73438;DHT22;62744;56.802;23.964;2022-12-07T00:04:14;-1.80;95.50
73438;DHT22;62744;56.802;23.964;2022-12-07T00:06:44;-1.60;95.70
73438;DHT22;62744;56.802;23.964;2022-12-07T00:09:16;-1.50;95.50
73438;DHT22;62744;56.802;23.964;2022-12-07T00:11:45;-1.50;95.30
73438;DHT22;62744;56.802;23.964;2022-12-07T00:14:16;-1.40;95.50
73438;DHT22;62744;56.802;23.964;2022-12-07T00:16:44;-1.60;95.40
73438;DHT22;62744;56.802;23.964;2022-12-07T00:19:13;-1.50;95.50
73438;DHT22;62744;56.802;23.964;2022-12-07T00:21:41;-1.60;95.60
73438;DHT22;62744;56.802;23.964;2022-12-07T00:24:10;-1.70;95.70
73438;DHT22;62744;56.802;23.964;2022-12-07T00:26:40;-1.80;95.60
73438;DHT22;62744;56.802;23.964;2022-12-07T00:29:16;-1.50;95.70
73438;DHT22;62744;56.802;23.964;2022-12-07T00:31:44;-1.60;95.50
73438;DHT22;62744;56.802;23.964;2022-12-07T00:34:19;-1.50;95.50
73438;DHT22;62744;56.802;23.964;2022-12-07T00:36:48;-1.40;95.40
73438;DHT22;62744;56.802;23.964;2022-12-07T00:39:16;-1.60;95.40
73438;DHT22;62744;56.802;23.964;2022-12-07T00:41:44;-1.60;95.80
73438;DHT22;62744;56.802;23.964;2022-12-07T00:44:11;-1.60;95.60
73438;DHT22;62744;56.802;23.964;2022-12-07T00:46:39;-1.40;95.50
73438;DHT22;62744;56.802;23.964;2022-12-07T00:49:06;-1.70;95.80
73438;DHT22;62744;56.802;23.964;2022-12-07T00:51:34;-1.70;96.00
73438;DHT22;62744;56.802;23.964;2022-12-07T00:54:02;-1.80;96.00
73438;DHT22;62744;56.802;23.964;2022-12-07T00:56:29;-1.70;96.00
73438;DHT22;62744;56.802;23.964;2022-12-07T00:59:00;-1.80;96.30
73438;DHT22;62744;56.802;23.964;2022-12-07T01:01:33;-1.70;95.70
73438;DHT22;62744;56.802;23.964;2022-12-07T01:04:02;-1.70;95.90
73438;DHT22;62744;56.802;23.964;2022-12-07T01:06:30;-1.40;95.90
73438;DHT22;62744;56.802;23.964;2022-12-07T01:08:59;-1.50;96.10
73438;DHT22;62744;56.802;23.964;2022-12-07T01:11:28;-1.40;95.50
73438;DHT22;62744;56.802;23.964;2022-12-07T01:13:58;-1.70;95.40
73438;DHT22;62744;56.802;23.964;2022-12-07T01:16:28;-1.60;95.50
73438;DHT22;62744;56.802;23.964;2022-12-07T01:18:57;-1.60;95.70
73438;DHT22;62744;56.802;23.964;2022-12-07T01:21:27;-1.80;95.50
73438;DHT22;62744;56.802;23.964;2022-12-07T01:23:57;-1.60;95.70
73438;DHT22;62744;56.802;23.964;2022-12-07T01:26:25;-1.50;95.50
73438;DHT22;62744;56.802;23.964;2022-12-07T01:28:53;-1.60;95.40
73438;DHT22;62744;56.802;23.964;2022-12-07T01:31:24;-1.50;95.50
73438;DHT22;62744;56.802;23.964;2022-12-07T01:33:55;-1.50;95.60
73438;DHT22;62744;56.802;23.964;2022-12-07T01:36:26;-1.70;95.90
73438;DHT22;62744;56.802;23.964;2022-12-07T01:38:56;-1.50;95.90
73438;DHT22;62744;56.802;23.964;2022-12-07T01:41:26;-1.50;96.20
73438;DHT22;62744;56.802;23.964;2022-12-07T01:46:37;-1.40;96.00
73438;DHT22;62744;56.802;23.964;2022-12-07T01:49:07;-1.50;95.80
73438;DHT22;62744;56.802;23.964;2022-12-07T01:51:38;-1.50;95.20
73438;DHT22;62744;56.802;23.964;2022-12-07T01:54:10;-1.60;95.20
73438;DHT22;62744;56.802;23.964;2022-12-07T01:56:40;-1.70;95.20
73438;DHT22;62744;56.802;23.964;2022-12-07T01:59:09;-1.40;95.30
73438;DHT22;62744;56.802;23.964;2022-12-07T02:01:37;-1.70;95.00
73438;DHT22;62744;56.802;23.964;2022-12-07T02:04:06;-1.70;95.00
73438;DHT22;62744;56.802;23.964;2022-12-07T02:06:35;-1.50;95.20
73438;DHT22;62744;56.802;23.964;2022-12-07T02:09:04;-1.60;95.40
73438;DHT22;62744;56.802;23.964;2022-12-07T02:11:32;-1.50;95.50
73438;DHT22;62744;56.802;23.964;2022-12-07T02:14:00;-1.70;95.60
73438;DHT22;62744;56.802;23.964;2022-12-07T02:27:44;-1.50;95.50
73438;DHT22;62744;56.802;23.964;2022-12-07T02:30:21;-1.80;95.80
73438;DHT22;62744;56.802;23.964;2022-12-07T02:35:43;-1.70;95.20
73438;DHT22;62744;56.802;23.964;2022-12-07T02:41:02;-1.60;95.40
73438;DHT22;62744;56.802;23.964;2022-12-07T02:43:40;-1.70;95.60
73438;DHT22;62744;56.802;23.964;2022-12-07T02:46:20;-1.70;95.90
73438;DHT22;62744;56.802;23.964;2022-12-07T02:48:50;-1.60;95.90
73438;DHT22;62744;56.802;23.964;2022-12-07T02:51:19;-1.70;96.90
73438;DHT22;62744;56.802;23.964;2022-12-07T02:53:46;-1.40;96.40
73438;DHT22;62744;56.802;23.964;2022-12-07T03:07:30;-1.60;95.90
73438;DHT22;62744;56.802;23.964;2022-12-07T03:10:50;-1.60;96.00
73438;DHT22;62744;56.802;23.964;2022-12-07T03:18:05;-1.70;96.10
73438;DHT22;62744;56.802;23.964;2022-12-07T03:20:36;-1.70;96.10
73438;DHT22;62744;56.802;23.964;2022-12-07T03:23:07;-1.70;96.30
73438;DHT22;62744;56.802;23.964;2022-12-07T03:25:41;-1.60;96.00
73438;DHT22;62744;56.802;23.964;2022-12-07T03:28:13;-1.60;96.00
73438;DHT22;62744;56.802;23.964;2022-12-07T03:30:53;-1.60;96.00
73438;DHT22;62744;56.802;23.964;2022-12-07T03:33:40;-1.70;95.90
73438;DHT22;62744;56.802;23.964;2022-12-07T03:36:22;-1.90;96.20
73438;DHT22;62744;56.802;23.964;2022-12-07T03:39:03;-1.70;96.20
73438;DHT22;62744;56.802;23.964;2022-12-07T03:41:34;-1.70;96.00
73438;DHT22;62744;56.802;23.964;2022-12-07T03:44:09;-1.80;96.30
73438;DHT22;62744;56.802;23.964;2022-12-07T03:49:49;-1.60;96.30
73438;DHT22;62744;56.802;23.964;2022-12-07T03:52:22;-1.50;96.30
73438;DHT22;62744;56.802;23.964;2022-12-07T03:57:25;-1.60;96.40
73438;DHT22;62744;56.802;23.964;2022-12-07T03:59:55;-1.60;96.10
73438;DHT22;62744;56.802;23.964;2022-12-07T04:02:26;-1.80;96.30
73438;DHT22;62744;56.802;23.964;2022-12-07T04:04:56;-1.70;96.30
73438;DHT22;62744;56.802;23.964;2022-12-07T04:07:24;-1.60;96.30
73438;DHT22;62744;56.802;23.964;2022-12-07T04:09:51;-1.60;96.50
73438;DHT22;62744;56.802;23.964;2022-12-07T04:12:23;-1.70;96.20
73438;DHT22;62744;56.802;23.964;2022-12-07T04:14:50;-1.60;96.30
73438;DHT22;62744;56.802;23.964;2022-12-07T04:17:18;-1.50;96.40
73438;DHT22;62744;56.802;23.964;2022-12-07T04:19:45;-1.60;96.30
73438;DHT22;62744;56.802;23.964;2022-12-07T04:22:13;-1.40;96.20
73438;DHT22;62744;56.802;23.964;2022-12-07T04:24:40;-1.50;96.20
73438;DHT22;62744;56.802;23.964;2022-12-07T04:27:08;-1.70;96.20
73438;DHT22;62744;56.802;23.964;2022-12-07T04:29:36;-1.80;96.20
73438;DHT22;62744;56.802;23.964;2022-12-07T04:32:03;-1.50;96.00
73438;DHT22;62744;56.802;23.964;2022-12-07T04:34:31;-1.70;96.00
73438;DHT22;62744;56.802;23.964;2022-12-07T04:36:59;-1.40;96.20
73438;DHT22;62744;56.802;23.964;2022-12-07T04:39:29;-1.60;96.00
73438;DHT22;62744;56.802;23.964;2022-12-07T04:41:58;-1.50;96.30
73438;DHT22;62744;56.802;23.964;2022-12-07T04:44:28;-1.70;95.90
73438;DHT22;62744;56.802;23.964;2022-12-07T04:46:56;-1.60;96.10
73438;DHT22;62744;56.802;23.964;2022-12-07T04:49:24;-1.60;95.90
73438;DHT22;62744;56.802;23.964;2022-12-07T04:51:52;-1.70;96.30
73438;DHT22;62744;56.802;23.964;2022-12-07T04:54:20;-1.60;96.30
73438;DHT22;62744;56.802;23.964;2022-12-07T04:56:48;-1.50;96.30
73438;DHT22;62744;56.802;23.964;2022-12-07T04:59:16;-1.50;96.60
73438;DHT22;62744;56.802;23.964;2022-12-07T05:01:44;-1.60;96.90
73438;DHT22;62744;56.802;23.964;2022-12-07T05:04:12;-1.40;97.40
73438;DHT22;62744;56.802;23.964;2022-12-07T05:06:39;-1.30;96.90
73438;DHT22;62744;56.802;23.964;2022-12-07T05:09:07;-1.50;96.70
73438;DHT22;62744;56.802;23.964;2022-12-07T05:11:35;-1.40;96.30
73438;DHT22;62744;56.802;23.964;2022-12-07T05:14:18;-1.30;96.40
73438;DHT22;62744;56.802;23.964;2022-12-07T05:16:49;-1.50;96.30
73438;DHT22;62744;56.802;23.964;2022-12-07T05:19:17;-1.50;96.20
73438;DHT22;62744;56.802;23.964;2022-12-07T05:21:46;-1.40;96.80
73438;DHT22;62744;56.802;23.964;2022-12-07T05:24:15;-1.30;96.10
73438;DHT22;62744;56.802;23.964;2022-12-07T05:26:43;-1.40;96.10
73438;DHT22;62744;56.802;23.964;2022-12-07T05:29:14;-1.40;96.00
73438;DHT22;62744;56.802;23.964;2022-12-07T05:31:41;-1.30;95.80
73438;DHT22;62744;56.802;23.964;2022-12-07T05:34:11;-1.50;96.00
73438;DHT22;62744;56.802;23.964;2022-12-07T05:36:39;-1.30;96.00
73438;DHT22;62744;56.802;23.964;2022-12-07T05:39:06;-1.60;95.90
73438;DHT22;62744;56.802;23.964;2022-12-07T05:41:34;-1.40;96.10
73438;DHT22;62744;56.802;23.964;2022-12-07T05:44:20;-1.30;96.00
73438;DHT22;62744;56.802;23.964;2022-12-07T05:46:47;-1.30;96.10
73438;DHT22;62744;56.802;23.964;2022-12-07T05:49:15;-1.50;96.10
73438;DHT22;62744;56.802;23.964;2022-12-07T05:51:43;-1.40;96.90
73438;DHT22;62744;56.802;23.964;2022-12-07T05:54:10;1.50;99.90
73438;DHT22;62744;56.802;23.964;2022-12-07T05:56:39;2.00;99.90
73438;DHT22;62744;56.802;23.964;2022-12-07T05:59:07;0.80;94.30
73438;DHT22;62744;56.802;23.964;2022-12-07T06:02:08;0.20;92.10
73438;DHT22;62744;56.802;23.964;2022-12-07T06:04:43;-0.20;91.80
73438;DHT22;62744;56.802;23.964;2022-12-07T06:07:13;-0.70;92.80
73438;DHT22;62744;56.802;23.964;2022-12-07T06:09:42;-0.90;93.50
73438;DHT22;62744;56.802;23.964;2022-12-07T06:12:13;-1.00;94.00
73438;DHT22;62744;56.802;23.964;2022-12-07T06:14:59;-1.10;94.40
73438;DHT22;62744;56.802;23.964;2022-12-07T06:17:27;-1.20;94.80
73438;DHT22;62744;56.802;23.964;2022-12-07T06:19:54;-1.10;94.80
73438;DHT22;62744;56.802;23.964;2022-12-07T06:22:22;-1.10;95.00
73438;DHT22;62744;56.802;23.964;2022-12-07T06:24:49;-1.30;94.90
73438;DHT22;62744;56.802;23.964;2022-12-07T06:27:17;-1.10;95.10
73438;DHT22;62744;56.802;23.964;2022-12-07T06:29:45;-1.50;95.30
73438;DHT22;62744;56.802;23.964;2022-12-07T06:32:12;-1.30;95.50
73438;DHT22;62744;56.802;23.964;2022-12-07T06:34:40;-1.60;95.50
73438;DHT22;62744;56.802;23.964;2022-12-07T06:37:07;-1.60;95.60
73438;DHT22;62744;56.802;23.964;2022-12-07T06:39:35;-1.60;95.50
73438;DHT22;62744;56.802;23.964;2022-12-07T06:42:03;-1.40;95.20
73438;DHT22;62744;56.802;23.964;2022-12-07T06:44:30;-1.60;95.40
73438;DHT22;62744;56.802;23.964;2022-12-07T06:46:58;-1.50;95.40
73438;DHT22;62744;56.802;23.964;2022-12-07T06:49:45;-1.50;95.30
73438;DHT22;62744;56.802;23.964;2022-12-07T06:52:13;-1.60;95.70
73438;DHT22;62744;56.802;23.964;2022-12-07T06:54:40;-1.60;95.50
73438;DHT22;62744;56.802;23.964;2022-12-07T06:57:08;-1.60;95.70
73438;DHT22;62744;56.802;23.964;2022-12-07T06:59:36;-1.50;96.00
73438;DHT22;62744;56.802;23.964;2022-12-07T07:02:03;-1.50;96.30
73438;DHT22;62744;56.802;23.964;2022-12-07T07:04:31;-1.40;95.90
73438;DHT22;62744;56.802;23.964;2022-12-07T07:06:58;-1.50;95.60
73438;DHT22;62744;56.802;23.964;2022-12-07T07:09:26;-1.40;95.60
73438;DHT22;62744;56.802;23.964;2022-12-07T07:11:54;-1.60;95.20
73438;DHT22;62744;56.802;23.964;2022-12-07T07:14:22;-1.50;95.30
73438;DHT22;62744;56.802;23.964;2022-12-07T07:16:49;-1.50;95.30
73438;DHT22;62744;56.802;23.964;2022-12-07T07:19:17;-1.60;95.40
73438;DHT22;62744;56.802;23.964;2022-12-07T07:21:44;-1.50;95.30
73438;DHT22;62744;56.802;23.964;2022-12-07T07:24:12;-1.40;95.20
73438;DHT22;62744;56.802;23.964;2022-12-07T07:26:39;-1.50;95.30
73438;DHT22;62744;56.802;23.964;2022-12-07T07:29:07;-1.60;95.20
73438;DHT22;62744;56.802;23.964;2022-12-07T07:31:34;-1.50;95.50
73438;DHT22;62744;56.802;23.964;2022-12-07T07:34:03;-1.60;95.40
73438;DHT22;62744;56.802;23.964;2022-12-07T07:36:31;-1.70;95.40
73438;DHT22;62744;56.802;23.964;2022-12-07T07:38:58;-1.60;95.30
73438;DHT22;62744;56.802;23.964;2022-12-07T07:41:26;-1.50;95.30
73438;DHT22;62744;56.802;23.964;2022-12-07T07:43:53;-1.60;95.20
73438;DHT22;62744;56.802;23.964;2022-12-07T07:46:21;-1.60;95.20
73438;DHT22;62744;56.802;23.964;2022-12-07T07:48:48;-1.50;94.60
73438;DHT22;62744;56.802;23.964;2022-12-07T07:51:16;-1.40;95.00
73438;DHT22;62744;56.802;23.964;2022-12-07T07:53:44;-1.40;94.70
73438;DHT22;62744;56.802;23.964;2022-12-07T07:56:11;-1.50;94.80
73438;DHT22;62744;56.802;23.964;2022-12-07T07:58:39;-1.50;94.70
73438;DHT22;62744;56.802;23.964;2022-12-07T08:01:06;-1.60;94.60
73438;DHT22;62744;56.802;23.964;2022-12-07T08:03:35;-1.30;94.30
73438;DHT22;62744;56.802;23.964;2022-12-07T08:06:03;-1.60;94.20
73438;DHT22;62744;56.802;23.964;2022-12-07T08:08:32;-1.40;94.10
73438;DHT22;62744;56.802;23.964;2022-12-07T08:10:59;-1.40;94.10
73438;DHT22;62744;56.802;23.964;2022-12-07T08:13:28;-1.40;94.20
73438;DHT22;62744;56.802;23.964;2022-12-07T08:15:57;-1.30;94.20
73438;DHT22;62744;56.802;23.964;2022-12-07T08:18:25;-1.40;94.10
73438;DHT22;62744;56.802;23.964;2022-12-07T08:20:59;-1.40;93.80
73438;DHT22;62744;56.802;23.964;2022-12-07T08:23:28;-1.50;93.80
73438;DHT22;62744;56.802;23.964;2022-12-07T08:26:08;-1.50;94.10
73438;DHT22;62744;56.802;23.964;2022-12-07T08:28:36;-1.30;94.20
73438;DHT22;62744;56.802;23.964;2022-12-07T08:31:10;-1.40;94.00
73438;DHT22;62744;56.802;23.964;2022-12-07T08:33:39;-1.30;93.90
73438;DHT22;62744;56.802;23.964;2022-12-07T08:36:09;-1.40;93.80
73438;DHT22;62744;56.802;23.964;2022-12-07T08:38:38;-1.40;93.60
73438;DHT22;62744;56.802;23.964;2022-12-07T08:41:07;-1.20;93.70
73438;DHT22;62744;56.802;23.964;2022-12-07T08:43:36;-1.40;93.40
73438;DHT22;62744;56.802;23.964;2022-12-07T08:46:26;-1.40;93.30
73438;DHT22;62744;56.802;23.964;2022-12-07T08:49:05;-1.30;93.30
73438;DHT22;62744;56.802;23.964;2022-12-07T08:51:33;-1.30;93.50
73438;DHT22;62744;56.802;23.964;2022-12-07T08:54:04;-1.30;93.40
73438;DHT22;62744;56.802;23.964;2022-12-07T08:56:34;-1.30;93.70
73438;DHT22;62744;56.802;23.964;2022-12-07T08:59:03;-1.30;93.40
73438;DHT22;62744;56.802;23.964;2022-12-07T09:01:31;-1.30;93.50
73438;DHT22;62744;56.802;23.964;2022-12-07T09:04:00;-1.40;93.50
73438;DHT22;62744;56.802;23.964;2022-12-07T09:06:27;-1.30;94.20
73438;DHT22;62744;56.802;23.964;2022-12-07T09:08:58;-1.20;94.00
73438;DHT22;62744;56.802;23.964;2022-12-07T09:11:27;-1.10;93.40
73438;DHT22;62744;56.802;23.964;2022-12-07T09:13:55;-1.20;92.70
73438;DHT22;62744;56.802;23.964;2022-12-07T09:16:23;-1.00;92.60
73438;DHT22;62744;56.802;23.964;2022-12-07T09:18:51;-1.20;92.40
73438;DHT22;62744;56.802;23.964;2022-12-07T09:21:18;-1.00;92.50
73438;DHT22;62744;56.802;23.964;2022-12-07T09:23:46;-1.10;92.80
73438;DHT22;62744;56.802;23.964;2022-12-07T09:26:14;-1.00;92.80
73438;DHT22;62744;56.802;23.964;2022-12-07T09:28:42;-1.10;92.40
73438;DHT22;62744;56.802;23.964;2022-12-07T09:31:09;-1.10;92.40
73438;DHT22;62744;56.802;23.964;2022-12-07T09:33:57;-1.20;92.40
73438;DHT22;62744;56.802;23.964;2022-12-07T09:36:27;-1.20;92.80
73438;DHT22;62744;56.802;23.964;2022-12-07T09:38:55;-1.40;92.40
73438;DHT22;62744;56.802;23.964;2022-12-07T09:41:24;-1.20;92.50
73438;DHT22;62744;56.802;23.964;2022-12-07T09:43:53;-1.30;92.70
73438;DHT22;62744;56.802;23.964;2022-12-07T09:46:32;-1.30;92.80
73438;DHT22;62744;56.802;23.964;2022-12-07T09:49:02;-1.20;92.50
73438;DHT22;62744;56.802;23.964;2022-12-07T09:51:30;-1.30;92.70
73438;DHT22;62744;56.802;23.964;2022-12-07T09:53:59;-1.00;92.30
73438;DHT22;62744;56.802;23.964;2022-12-07T09:56:29;-0.90;92.40
73438;DHT22;62744;56.802;23.964;2022-12-07T09:59:03;-1.10;92.20
73438;DHT22;62744;56.802;23.964;2022-12-07T10:01:32;-1.20;92.50
73438;DHT22;62744;56.802;23.964;2022-12-07T10:04:17;-1.20;92.20
73438;DHT22;62744;56.802;23.964;2022-12-07T10:06:46;-1.00;92.00
73438;DHT22;62744;56.802;23.964;2022-12-07T10:09:17;-1.20;91.80
73438;DHT22;62744;56.802;23.964;2022-12-07T10:14:39;-0.90;91.40
73438;DHT22;62744;56.802;23.964;2022-12-07T10:17:36;-0.90;91.20
73438;DHT22;62744;56.802;23.964;2022-12-07T10:20:18;-0.90;91.40
73438;DHT22;62744;56.802;23.964;2022-12-07T10:23:04;-0.90;91.30
73438;DHT22;62744;56.802;23.964;2022-12-07T10:25:35;-1.10;91.40
73438;DHT22;62744;56.802;23.964;2022-12-07T10:33:36;-1.10;91.20
73438;DHT22;62744;56.802;23.964;2022-12-07T10:36:27;-1.30;91.60
73438;DHT22;62744;56.802;23.964;2022-12-07T10:41:31;-1.00;91.30
73438;DHT22;62744;56.802;23.964;2022-12-07T10:43:58;-1.10;91.40
73438;DHT22;62744;56.802;23.964;2022-12-07T10:55:22;-1.00;91.80
73438;DHT22;62744;56.802;23.964;2022-12-07T11:01:03;-1.10;93.00
73438;DHT22;62744;56.802;23.964;2022-12-07T11:06:16;-0.90;91.60
73438;DHT22;62744;56.802;23.964;2022-12-07T11:09:25;-1.10;91.50
73438;DHT22;62744;56.802;23.964;2022-12-07T11:15:28;-1.00;90.90
73438;DHT22;62744;56.802;23.964;2022-12-07T11:18:33;-1.00;91.10
73438;DHT22;62744;56.802;23.964;2022-12-07T11:21:15;-1.20;91.20
73438;DHT22;62744;56.802;23.964;2022-12-07T11:31:22;-1.20;90.30
73438;DHT22;62744;56.802;23.964;2022-12-07T11:34:04;-1.00;90.80
73438;DHT22;62744;56.802;23.964;2022-12-07T11:36:44;-1.20;90.90
73438;DHT22;62744;56.802;23.964;2022-12-07T11:41:55;-1.10;91.00
73438;DHT22;62744;56.802;23.964;2022-12-07T11:44:46;-1.20;91.40
73438;DHT22;62744;56.802;23.964;2022-12-07T11:47:36;-1.30;91.30
73438;DHT22;62744;56.802;23.964;2022-12-07T11:55:58;-1.30;92.20
73438;DHT22;62744;56.802;23.964;2022-12-07T11:58:51;-1.10;91.90
73438;DHT22;62744;56.802;23.964;2022-12-07T12:06:44;-1.30;90.90
73438;DHT22;62744;56.802;23.964;2022-12-07T12:10:03;-1.20;90.70
73438;DHT22;62744;56.802;23.964;2022-12-07T12:15:37;-1.50;91.30
73438;DHT22;62744;56.802;23.964;2022-12-07T12:20:54;-1.50;91.50
73438;DHT22;62744;56.802;23.964;2022-12-07T12:23:35;-1.50;91.60
73438;DHT22;62744;56.802;23.964;2022-12-07T12:26:06;-1.70;91.60
73438;DHT22;62744;56.802;23.964;2022-12-07T12:28:50;-1.60;91.40
73438;DHT22;62744;56.802;23.964;2022-12-07T12:34:00;-1.70;91.80
73438;DHT22;62744;56.802;23.964;2022-12-07T12:36:45;-1.50;91.90
73438;DHT22;62744;56.802;23.964;2022-12-07T12:39:15;-1.60;92.40
73438;DHT22;62744;56.802;23.964;2022-12-07T12:46:58;-1.40;91.90
73438;DHT22;62744;56.802;23.964;2022-12-07T12:55:02;-1.70;92.20
73438;DHT22;62744;56.802;23.964;2022-12-07T12:57:39;-1.70;92.40
73438;DHT22;62744;56.802;23.964;2022-12-07T13:00:20;-1.80;92.10
73438;DHT22;62744;56.802;23.964;2022-12-07T13:02:49;-2.00;92.20
73438;DHT22;62744;56.802;23.964;2022-12-07T13:05:22;-1.80;92.50
73438;DHT22;62744;56.802;23.964;2022-12-07T13:07:59;-1.70;92.50
73438;DHT22;62744;56.802;23.964;2022-12-07T13:18:23;-1.90;92.80
73438;DHT22;62744;56.802;23.964;2022-12-07T13:31:52;-2.00;93.10
73438;DHT22;62744;56.802;23.964;2022-12-07T13:34:33;-2.10;93.10
73438;DHT22;62744;56.802;23.964;2022-12-07T13:37:21;-2.10;93.30
73438;DHT22;62744;56.802;23.964;2022-12-07T13:39:57;-2.10;93.40
73438;DHT22;62744;56.802;23.964;2022-12-07T13:42:33;-2.10;93.50
73438;DHT22;62744;56.802;23.964;2022-12-07T13:45:25;-2.30;93.40
73438;DHT22;62744;56.802;23.964;2022-12-07T13:48:19;-2.00;93.60
73438;DHT22;62744;56.802;23.964;2022-12-07T13:50:54;-2.20;93.90
73438;DHT22;62744;56.802;23.964;2022-12-07T13:53:22;-2.20;93.90
73438;DHT22;62744;56.802;23.964;2022-12-07T13:55:50;-2.30;94.00
73438;DHT22;62744;56.802;23.964;2022-12-07T13:58:22;-2.20;93.80
73438;DHT22;62744;56.802;23.964;2022-12-07T14:00:50;-2.30;93.70
73438;DHT22;62744;56.802;23.964;2022-12-07T14:05:46;-2.30;94.00
73438;DHT22;62744;56.802;23.964;2022-12-07T14:10:55;-2.30;93.60
73438;DHT22;62744;56.802;23.964;2022-12-07T14:13:37;-1.90;93.80
73438;DHT22;62744;56.802;23.964;2022-12-07T14:16:26;-2.30;93.60
73438;DHT22;62744;56.802;23.964;2022-12-07T14:18:58;-2.10;93.90
73438;DHT22;62744;56.802;23.964;2022-12-07T14:21:28;-2.40;93.90
73438;DHT22;62744;56.802;23.964;2022-12-07T14:26:44;-2.30;94.10
73438;DHT22;62744;56.802;23.964;2022-12-07T14:37:24;-2.20;94.00
73438;DHT22;62744;56.802;23.964;2022-12-07T14:39:52;-2.30;94.10
73438;DHT22;62744;56.802;23.964;2022-12-07T14:42:20;-2.40;94.30
73438;DHT22;62744;56.802;23.964;2022-12-07T14:44:51;-2.30;94.70
73438;DHT22;62744;56.802;23.964;2022-12-07T14:47:19;-2.20;95.20
73438;DHT22;62744;56.802;23.964;2022-12-07T14:50:07;-2.20;95.00
73438;DHT22;62744;56.802;23.964;2022-12-07T14:52:37;-2.10;94.20
73438;DHT22;62744;56.802;23.964;2022-12-07T14:55:28;-2.10;94.20
73438;DHT22;62744;56.802;23.964;2022-12-07T14:57:56;-2.30;94.00
73438;DHT22;62744;56.802;23.964;2022-12-07T15:00:26;-2.40;93.90
73438;DHT22;62744;56.802;23.964;2022-12-07T15:02:55;-2.30;94.20
73438;DHT22;62744;56.802;23.964;2022-12-07T15:05:23;-2.20;93.80
73438;DHT22;62744;56.802;23.964;2022-12-07T15:07:51;-2.00;93.80
73438;DHT22;62744;56.802;23.964;2022-12-07T15:10:22;-2.30;93.60
73438;DHT22;62744;56.802;23.964;2022-12-07T15:12:51;-2.10;93.90
73438;DHT22;62744;56.802;23.964;2022-12-07T15:15:18;-2.30;93.90
73438;DHT22;62744;56.802;23.964;2022-12-07T15:17:46;-2.00;93.70
73438;DHT22;62744;56.802;23.964;2022-12-07T15:20:15;-2.00;93.60
73438;DHT22;62744;56.802;23.964;2022-12-07T15:22:44;-2.30;93.60
73438;DHT22;62744;56.802;23.964;2022-12-07T15:25:15;-1.20;99.60
73438;DHT22;62744;56.802;23.964;2022-12-07T15:27:42;-1.60;93.50
73438;DHT22;62744;56.802;23.964;2022-12-07T15:30:10;-1.50;92.50
73438;DHT22;62744;56.802;23.964;2022-12-07T15:32:38;-1.80;92.50
73438;DHT22;62744;56.802;23.964;2022-12-07T15:35:06;-1.90;92.70
73438;DHT22;62744;56.802;23.964;2022-12-07T15:37:34;-2.00;93.20
73438;DHT22;62744;56.802;23.964;2022-12-07T15:40:01;-2.20;93.20
73438;DHT22;62744;56.802;23.964;2022-12-07T15:42:35;-2.20;93.50
73438;DHT22;62744;56.802;23.964;2022-12-07T15:45:05;-2.00;93.50
73438;DHT22;62744;56.802;23.964;2022-12-07T15:47:36;-2.10;93.30
73438;DHT22;62744;56.802;23.964;2022-12-07T15:50:24;-2.20;93.40
73438;DHT22;62744;56.802;23.964;2022-12-07T15:52:52;-2.20;93.50
73438;DHT22;62744;56.802;23.964;2022-12-07T15:55:19;-2.10;93.40
73438;DHT22;62744;56.802;23.964;2022-12-07T15:57:47;-2.10;93.70
73438;DHT22;62744;56.802;23.964;2022-12-07T16:00:17;-1.90;97.20
73438;DHT22;62744;56.802;23.964;2022-12-07T16:02:45;-1.70;94.60
73438;DHT22;62744;56.802;23.964;2022-12-07T16:05:13;-1.80;93.10
73438;DHT22;62744;56.802;23.964;2022-12-07T16:07:41;-1.90;92.60
73438;DHT22;62744;56.802;23.964;2022-12-07T16:10:09;-2.10;92.60
73438;DHT22;62744;56.802;23.964;2022-12-07T16:12:37;-1.80;92.80
73438;DHT22;62744;56.802;23.964;2022-12-07T16:15:06;-2.00;93.30
73438;DHT22;62744;56.802;23.964;2022-12-07T16:17:33;-2.20;93.30
73438;DHT22;62744;56.802;23.964;2022-12-07T16:20:01;-2.20;93.60
73438;DHT22;62744;56.802;23.964;2022-12-07T16:22:29;-2.20;93.60
73438;DHT22;62744;56.802;23.964;2022-12-07T16:24:57;-2.20;93.50
73438;DHT22;62744;56.802;23.964;2022-12-07T16:27:25;-2.20;93.70
73438;DHT22;62744;56.802;23.964;2022-12-07T16:29:52;-2.30;93.90
73438;DHT22;62744;56.802;23.964;2022-12-07T16:32:20;-1.90;94.70
73438;DHT22;62744;56.802;23.964;2022-12-07T16:34:48;-1.80;93.40
73438;DHT22;62744;56.802;23.964;2022-12-07T16:37:16;-1.50;96.10
73438;DHT22;62744;56.802;23.964;2022-12-07T16:39:44;-1.60;92.60
73438;DHT22;62744;56.802;23.964;2022-12-07T16:42:13;-1.70;92.70
73438;DHT22;62744;56.802;23.964;2022-12-07T16:44:43;-2.00;92.80
73438;DHT22;62744;56.802;23.964;2022-12-07T16:47:11;-1.90;93.10
73438;DHT22;62744;56.802;23.964;2022-12-07T16:49:39;-2.10;93.40
73438;DHT22;62744;56.802;23.964;2022-12-07T16:52:07;-2.10;94.00
73438;DHT22;62744;56.802;23.964;2022-12-07T16:54:46;-2.10;94.00
73438;DHT22;62744;56.802;23.964;2022-12-07T16:57:15;-1.80;94.80
73438;DHT22;62744;56.802;23.964;2022-12-07T16:59:50;-2.00;94.30
73438;DHT22;62744;56.802;23.964;2022-12-07T17:02:19;-2.00;93.80
73438;DHT22;62744;56.802;23.964;2022-12-07T17:04:48;-1.90;94.00
73438;DHT22;62744;56.802;23.964;2022-12-07T17:07:16;-2.00;94.10
73438;DHT22;62744;56.802;23.964;2022-12-07T17:09:44;-2.00;94.10
73438;DHT22;62744;56.802;23.964;2022-12-07T17:12:12;-2.10;94.10
73438;DHT22;62744;56.802;23.964;2022-12-07T17:14:39;-2.20;94.00
73438;DHT22;62744;56.802;23.964;2022-12-07T17:17:25;-2.00;94.20
73438;DHT22;62744;56.802;23.964;2022-12-07T17:19:53;-1.80;94.00
73438;DHT22;62744;56.802;23.964;2022-12-07T17:22:21;-2.00;94.20
73438;DHT22;62744;56.802;23.964;2022-12-07T17:24:48;-2.20;94.10
73438;DHT22;62744;56.802;23.964;2022-12-07T17:27:16;-2.10;94.10
73438;DHT22;62744;56.802;23.964;2022-12-07T17:29:43;-2.20;94.30
73438;DHT22;62744;56.802;23.964;2022-12-07T17:32:11;-1.90;94.40
73438;DHT22;62744;56.802;23.964;2022-12-07T17:34:39;-2.10;94.10
73438;DHT22;62744;56.802;23.964;2022-12-07T17:37:06;-1.90;94.20
73438;DHT22;62744;56.802;23.964;2022-12-07T17:39:34;-2.20;94.30
73438;DHT22;62744;56.802;23.964;2022-12-07T17:42:02;-2.10;94.40
73438;DHT22;62744;56.802;23.964;2022-12-07T17:44:48;-1.90;94.50
73438;DHT22;62744;56.802;23.964;2022-12-07T17:47:16;-2.10;94.60
73438;DHT22;62744;56.802;23.964;2022-12-07T17:49:45;-1.90;94.70
73438;DHT22;62744;56.802;23.964;2022-12-07T17:52:13;-2.00;94.70
73438;DHT22;62744;56.802;23.964;2022-12-07T17:54:59;-2.10;94.80
73438;DHT22;62744;56.802;23.964;2022-12-07T17:57:28;-2.10;94.80
73438;DHT22;62744;56.802;23.964;2022-12-07T17:59:56;-2.00;94.60
73438;DHT22;62744;56.802;23.964;2022-12-07T18:02:24;-1.90;94.40
73438;DHT22;62744;56.802;23.964;2022-12-07T18:04:53;-1.90;94.70
73438;DHT22;62744;56.802;23.964;2022-12-07T18:07:22;-2.00;94.60